createdAt,value
2022-12-08T00:00:54.122Z,74.39
2022-12-08T00:06:15.399Z,74.38
2022-12-08T00:11:18.983Z,74.14
2022-12-08T00:16:21.608Z,74.42
2022-12-08T00:21:24.264Z,74.42
2022-12-08T00:26:26.833Z,74.26
2022-12-08T00:31:29.880Z,74.30
2022-12-08T00:36:32.717Z,73.99
2022-12-08T00:41:53.972Z,73.97
2022-12-08T00:46:56.905Z,73.81
2022-12-08T00:51:59.500Z,73.39
2022-12-08T00:57:02.458Z,73.58
2022-12-08T01:02:05.011Z,73.65
2022-12-08T01:07:08.029Z,73.96
2022-12-08T01:12:10.574Z,73.88
2022-12-08T01:17:13.251Z,74.15
2022-12-08T01:22:15.858Z,74.01
2022-12-08T01:27:18.412Z,73.54
2022-12-08T01:32:21.091Z,73.37
2022-12-08T01:37:23.678Z,73.17
2022-12-08T01:42:26.439Z,73.38
2022-12-08T01:47:42.215Z,73.36
2022-12-08T01:52:50.819Z,73.30
2022-12-08T01:57:59.022Z,73.32
2022-12-08T02:03:05.303Z,73.16
2022-12-08T02:08:11.384Z,73.68
2022-12-08T02:13:16.849Z,73.09
2022-12-08T02:18:37.507Z,73.55
2022-12-08T02:24:19.452Z,73.38
2022-12-08T02:29:27.617Z,73.05
2022-12-08T02:34:41.303Z,72.63
2022-12-08T02:40:01.122Z,73.25
2022-12-08T02:45:11.922Z,72.92
2022-12-08T02:50:15.702Z,72.91
2022-12-08T02:55:46.323Z,73.50
2022-12-08T03:01:14.573Z,73.50
2022-12-08T03:06:49.412Z,73.79
2022-12-08T03:12:06.428Z,73.56
2022-12-08T03:17:10.305Z,73.67
2022-12-08T03:22:15.387Z,73.87
2022-12-08T03:27:21.131Z,74.19
2022-12-08T03:32:58.207Z,74.00
2022-12-08T03:38:05.496Z,74.45
2022-12-08T03:43:08.380Z,74.40
2022-12-08T03:48:10.912Z,74.71
2022-12-08T03:53:13.451Z,74.81
2022-12-08T03:58:16.279Z,74.66
2022-12-08T04:03:18.947Z,74.46
2022-12-08T04:08:21.604Z,74.30
2022-12-08T04:13:24.226Z,75.35
2022-12-08T04:18:26.714Z,74.94
2022-12-08T04:23:29.935Z,75.56
2022-12-08T04:28:32.979Z,76.27
2022-12-08T04:33:35.660Z,76.11
2022-12-08T04:38:38.190Z,77.55
2022-12-08T04:43:41.763Z,77.08
2022-12-08T04:48:44.371Z,77.11
2022-12-08T04:53:47.482Z,77.49
2022-12-08T04:58:51.702Z,77.40
2022-12-08T05:03:54.225Z,77.21
2022-12-08T05:08:57.305Z,77.00
2022-12-08T05:13:59.887Z,77.21
2022-12-08T05:19:02.551Z,77.33
2022-12-08T05:24:05.630Z,77.28
2022-12-08T05:29:08.331Z,77.64
2022-12-08T05:34:10.877Z,77.98
2022-12-08T05:39:14.224Z,77.35
2022-12-08T05:44:16.758Z,77.55
2022-12-08T05:49:19.287Z,77.85
2022-12-08T05:54:21.846Z,77.76
2022-12-08T05:59:24.543Z,77.85
2022-12-08T06:04:27.064Z,78.02
2022-12-08T06:09:30.635Z,77.80
2022-12-08T06:14:33.170Z,77.55
2022-12-08T06:19:35.774Z,77.94
2022-12-08T06:24:38.326Z,77.43
2022-12-08T06:29:40.855Z,76.92
2022-12-08T06:34:43.407Z,76.81
2022-12-08T06:39:46.981Z,77.25
2022-12-08T06:44:50.841Z,76.92
2022-12-08T06:49:53.407Z,77.02
2022-12-08T06:54:56.035Z,76.64
2022-12-08T06:59:58.675Z,76.44
2022-12-08T07:05:01.192Z,75.88
2022-12-08T07:10:04.410Z,76.25
2022-12-08T07:15:07.878Z,75.92
2022-12-08T07:20:10.654Z,75.63
2022-12-08T07:25:13.204Z,74.83
2022-12-08T07:30:15.926Z,74.59
2022-12-08T07:35:18.562Z,74.66
2022-12-08T07:40:21.103Z,74.53
2022-12-08T07:45:28.315Z,74.15
2022-12-08T07:50:33.946Z,74.73
2022-12-08T07:55:41.538Z,74.24
2022-12-08T08:00:44.317Z,74.75
2022-12-08T08:05:49.286Z,74.18
2022-12-08T08:10:51.887Z,74.12
2022-12-08T08:15:54.620Z,73.37
2022-12-08T08:20:58.142Z,73.58
2022-12-08T08:26:02.732Z,73.66
2022-12-08T08:31:06.542Z,73.95
2022-12-08T08:36:10.201Z,74.13
2022-12-08T08:41:12.742Z,73.67
2022-12-08T08:46:15.400Z,74.37
2022-12-08T08:51:18.064Z,74.09
2022-12-08T08:56:21.810Z,73.98
2022-12-08T09:01:28.582Z,74.31
2022-12-08T09:06:31.301Z,73.40
2022-12-08T09:11:34.025Z,73.91
2022-12-08T09:16:41.965Z,73.67
2022-12-08T09:21:45.106Z,74.27
2022-12-08T09:26:47.722Z,74.10
2022-12-08T09:31:50.375Z,73.68
2022-12-08T09:36:52.990Z,73.64
2022-12-08T09:42:01.348Z,73.55
2022-12-08T09:47:11.626Z,73.15
2022-12-08T09:52:21.555Z,73.30
2022-12-08T09:57:25.459Z,73.19
2022-12-08T10:02:30.375Z,73.51
2022-12-08T10:07:46.012Z,73.66
2022-12-08T10:12:59.486Z,73.67
2022-12-08T10:18:04.443Z,73.83
2022-12-08T10:23:12.892Z,73.80
2022-12-08T10:28:15.593Z,73.75
2022-12-08T10:33:21.012Z,73.74
2022-12-08T10:38:26.597Z,74.05
2022-12-08T10:43:29.466Z,74.67
2022-12-08T10:48:33.426Z,74.29
2022-12-08T10:53:46.134Z,74.63
2022-12-08T10:58:49.399Z,75.17
2022-12-08T11:03:55.823Z,75.33
2022-12-08T11:09:01.314Z,75.51
2022-12-08T11:14:08.088Z,75.26
2022-12-08T11:19:16.466Z,74.67
2022-12-08T11:24:24.254Z,74.80
2022-12-08T11:29:35.421Z,75.07
2022-12-08T11:34:46.915Z,75.07
2022-12-08T11:39:53.793Z,75.19
2022-12-08T11:45:06.327Z,75.38
2022-12-08T11:50:29.590Z,75.08
2022-12-08T11:55:45.144Z,75.53
2022-12-08T12:00:51.510Z,75.03
2022-12-08T12:11:48.161Z,75.62
2022-12-08T12:17:06.054Z,75.93
2022-12-08T12:22:17.995Z,75.87
2022-12-08T12:27:30.049Z,75.91
2022-12-08T12:32:55.807Z,75.91
2022-12-08T12:38:25.608Z,75.64
2022-12-08T12:43:34.262Z,76.04
2022-12-08T12:48:36.838Z,75.95
2022-12-08T12:53:39.363Z,76.16
2022-12-08T12:58:42.867Z,75.81
2022-12-08T13:04:09.661Z,75.76
2022-12-08T13:09:32.613Z,75.83
2022-12-08T13:14:38.102Z,75.81
2022-12-08T13:19:44.382Z,76.24
2022-12-08T13:24:48.971Z,76.24
2022-12-08T13:30:30.119Z,76.16
2022-12-08T13:35:33.356Z,76.37
2022-12-08T13:40:38.443Z,76.16
2022-12-08T13:46:52.484Z,76.78
2022-12-08T13:57:08.589Z,76.95
2022-12-08T14:02:51.754Z,76.92
2022-12-08T14:07:56.838Z,76.73
2022-12-08T14:13:05.968Z,76.68
2022-12-08T14:18:24.919Z,76.04
2022-12-08T14:23:28.036Z,76.14
2022-12-08T14:28:32.832Z,76.41
2022-12-08T14:33:35.526Z,76.30
2022-12-08T14:38:38.794Z,76.51
2022-12-08T14:43:43.131Z,76.61
2022-12-08T14:48:45.883Z,76.69
2022-12-08T14:54:00.845Z,76.23
2022-12-08T14:59:30.227Z,76.10
2022-12-08T15:04:32.807Z,75.65
2022-12-08T15:09:41.230Z,76.00
2022-12-08T15:14:58.854Z,75.58
2022-12-08T15:20:04.625Z,76.29
2022-12-08T15:25:13.891Z,75.92
2022-12-08T15:30:17.767Z,75.36
2022-12-08T15:35:20.438Z,75.69
2022-12-08T15:40:23.149Z,75.57
2022-12-08T15:45:32.664Z,76.04
2022-12-08T15:50:35.276Z,76.03
2022-12-08T15:55:39.189Z,76.18
2022-12-08T16:00:58.294Z,76.25
2022-12-08T16:06:50.740Z,76.13
2022-12-08T16:12:06.016Z,76.67
2022-12-08T16:17:06.326Z,76.10
2022-12-08T16:22:52.448Z,76.05
2022-12-08T16:33:03.689Z,77.01
2022-12-08T16:38:06.396Z,76.96
2022-12-08T16:43:09.208Z,77.40
2022-12-08T16:48:14.888Z,77.29
2022-12-08T16:53:17.484Z,77.56
2022-12-08T16:58:20.168Z,78.21
2022-12-08T17:03:22.778Z,78.34
2022-12-08T17:08:25.525Z,77.75
2022-12-08T17:13:28.288Z,78.15
2022-12-08T17:18:31.043Z,78.05
2022-12-08T17:23:33.639Z,77.86
2022-12-08T17:28:59.455Z,78.66
2022-12-08T17:34:03.129Z,78.57
2022-12-08T17:39:06.360Z,78.90
2022-12-08T17:44:13.826Z,79.03
2022-12-08T17:49:19.315Z,78.72
2022-12-08T17:54:22.273Z,78.42
2022-12-08T17:59:26.199Z,79.50
2022-12-08T18:04:29.107Z,79.31
2022-12-08T18:09:32.074Z,80.19
2022-12-08T18:14:34.946Z,79.41
2022-12-08T18:19:37.828Z,79.83
2022-12-08T18:24:40.430Z,80.73
2022-12-08T18:29:43.032Z,80.63
2022-12-08T18:34:46.167Z,81.50
2022-12-08T18:39:49.060Z,81.41
2022-12-08T18:45:01.854Z,81.48
2022-12-08T18:50:08.546Z,81.92
2022-12-08T18:55:11.363Z,81.20
2022-12-08T19:00:17.970Z,81.43
2022-12-08T19:05:20.594Z,82.11
2022-12-08T19:10:23.304Z,81.88
2022-12-08T19:15:26.515Z,82.19
2022-12-08T19:20:29.143Z,82.18
2022-12-08T19:25:32.323Z,82.01
2022-12-08T19:30:35.105Z,82.28
2022-12-08T19:35:38.331Z,81.70
2022-12-08T19:41:01.128Z,81.72
2022-12-08T19:46:03.947Z,82.35
2022-12-08T19:51:06.864Z,82.19
2022-12-08T19:56:09.414Z,82.58
2022-12-08T20:01:12.051Z,81.77
2022-12-08T20:06:16.727Z,82.09
2022-12-08T20:11:19.502Z,81.99
2022-12-08T20:16:24.108Z,81.74
2022-12-08T20:21:26.828Z,81.67
2022-12-08T20:26:29.384Z,81.33
2022-12-08T20:31:33.116Z,81.33
2022-12-08T20:36:35.868Z,81.94
2022-12-08T20:41:39.365Z,82.26
2022-12-08T20:46:47.797Z,82.12
2022-12-08T20:51:52.088Z,81.73
2022-12-08T20:56:54.764Z,82.23
2022-12-08T21:01:57.554Z,81.99
2022-12-08T21:07:00.578Z,81.89
2022-12-08T21:12:03.436Z,82.17
2022-12-08T21:17:06.151Z,82.06
2022-12-08T21:22:08.921Z,81.75
2022-12-08T21:27:11.905Z,81.26
2022-12-08T21:32:14.639Z,81.60
2022-12-08T21:37:17.761Z,81.61
2022-12-08T21:42:38.983Z,82.15
2022-12-08T21:47:42.160Z,82.45
2022-12-08T21:52:47.614Z,82.25
2022-12-08T21:57:50.460Z,81.27
2022-12-08T22:02:53.154Z,81.32
2022-12-08T22:07:56.409Z,81.81
2022-12-08T22:12:59.236Z,81.98
2022-12-08T22:18:02.126Z,81.98
2022-12-08T22:23:04.938Z,81.52
2022-12-08T22:28:07.652Z,81.61
2022-12-08T22:33:10.469Z,81.89
2022-12-08T22:38:13.166Z,82.35
2022-12-08T22:43:15.995Z,83.08
2022-12-08T22:48:18.611Z,82.71
2022-12-08T22:53:21.256Z,82.53
2022-12-08T22:58:24.326Z,82.19
2022-12-08T23:03:27.179Z,82.75
2022-12-08T23:08:30.095Z,82.58
2022-12-08T23:13:32.822Z,82.74
2022-12-08T23:18:35.756Z,82.65
2022-12-08T23:23:38.827Z,82.54
2022-12-08T23:28:41.492Z,82.26
2022-12-08T23:33:44.419Z,81.99
2022-12-08T23:38:48.008Z,82.49
2022-12-08T23:43:51.893Z,82.55
2022-12-08T23:48:54.579Z,82.64
2022-12-08T23:53:57.166Z,83.16
2022-12-08T23:59:01.176Z,83.36
